createdAt,value
2023-03-17T00:01:17.449Z,61.03
2023-03-17T00:03:49.529Z,62.67
2023-03-17T00:06:19.552Z,64.46
2023-03-17T00:08:47.711Z,62.36
2023-03-17T00:11:17.476Z,61.14
2023-03-17T00:13:46.122Z,60.01
2023-03-17T00:16:17.401Z,61.15
2023-03-17T00:18:46.863Z,60.38
2023-03-17T00:21:16.117Z,60.13
2023-03-17T00:23:45.076Z,60.45
2023-03-17T00:26:13.653Z,60.38
2023-03-17T00:28:41.350Z,59.81
2023-03-17T00:31:14.374Z,60.32
2023-03-17T00:33:42.371Z,60.42
2023-03-17T00:36:15.668Z,60.23
2023-03-17T00:38:43.734Z,59.13
2023-03-17T00:41:12.419Z,58.71
2023-03-17T00:43:40.571Z,59.05
2023-03-17T00:46:12.633Z,58.41
2023-03-17T00:48:40.546Z,60.39
2023-03-17T00:51:08.512Z,59.83
2023-03-17T00:53:37.692Z,59.19
2023-03-17T00:56:16.248Z,60.14
2023-03-17T00:58:44.570Z,59.81
2023-03-17T01:01:12.528Z,58.29
2023-03-17T01:03:41.486Z,58.79
2023-03-17T01:06:10.955Z,57.80
2023-03-17T01:08:40.626Z,58.69
2023-03-17T01:11:08.653Z,58.98
2023-03-17T01:13:36.672Z,59.58
2023-03-17T01:16:04.725Z,59.17
2023-03-17T01:18:32.771Z,57.40
2023-03-17T01:21:00.719Z,57.74
2023-03-17T01:23:28.485Z,57.78
2023-03-17T01:25:57.524Z,58.29
2023-03-17T01:28:25.438Z,57.88
2023-03-17T01:30:53.384Z,57.79
2023-03-17T01:33:21.060Z,57.68
2023-03-17T01:35:48.826Z,56.65
2023-03-17T01:38:17.769Z,57.71
2023-03-17T01:40:46.840Z,58.70
2023-03-17T01:43:20.755Z,58.48
2023-03-17T01:46:18.520Z,58.88
2023-03-17T01:48:49.547Z,57.03
2023-03-17T01:51:19.252Z,56.73
2023-03-17T01:53:48.203Z,56.96
2023-03-17T01:56:17.114Z,57.65
2023-03-17T01:58:48.308Z,58.46
2023-03-17T02:01:15.983Z,59.32
2023-03-17T02:03:43.868Z,58.85
2023-03-17T02:06:18.152Z,57.68
2023-03-17T02:08:46.381Z,58.22
2023-03-17T02:13:57.476Z,57.78
2023-03-17T02:16:25.347Z,59.60
2023-03-17T02:18:53.041Z,60.49
2023-03-17T02:21:40.978Z,59.70
2023-03-17T02:24:13.800Z,57.75
2023-03-17T02:26:41.585Z,57.68
2023-03-17T02:29:09.282Z,58.65
2023-03-17T02:31:37.237Z,57.03
2023-03-17T02:34:05.148Z,59.16
2023-03-17T02:36:34.799Z,57.69
2023-03-17T02:39:02.538Z,58.51
2023-03-17T02:41:30.207Z,56.87
2023-03-17T02:43:57.870Z,58.86
2023-03-17T02:46:25.668Z,57.18
2023-03-17T02:48:53.499Z,58.44
2023-03-17T02:51:21.431Z,56.84
2023-03-17T02:53:50.599Z,58.26
2023-03-17T02:56:18.311Z,58.90
2023-03-17T02:58:46.447Z,56.37
2023-03-17T03:01:14.271Z,58.02
2023-03-17T03:03:42.013Z,56.63
2023-03-17T03:06:09.758Z,56.52
2023-03-17T03:08:38.233Z,57.45
2023-03-17T03:11:07.407Z,57.46
2023-03-17T03:13:35.100Z,57.44
2023-03-17T03:16:02.796Z,56.10
2023-03-17T03:18:30.615Z,56.43
2023-03-17T03:20:58.302Z,56.00
2023-03-17T03:23:26.042Z,56.42
2023-03-17T03:25:54.031Z,56.06
2023-03-17T03:28:23.218Z,57.25
2023-03-17T03:30:51.271Z,57.81
2023-03-17T03:33:19.240Z,59.12
2023-03-17T03:35:46.959Z,61.50
2023-03-17T03:38:14.933Z,60.96
2023-03-17T03:40:42.618Z,62.22
2023-03-17T03:43:22.529Z,62.75
2023-03-17T03:46:15.927Z,65.63
2023-03-17T03:48:43.667Z,62.38
2023-03-17T03:51:11.324Z,60.39
2023-03-17T03:53:38.966Z,62.43
2023-03-17T03:56:17.300Z,60.02
2023-03-17T03:58:44.948Z,59.39
2023-03-17T04:01:14.544Z,61.85
2023-03-17T04:03:42.524Z,61.10
2023-03-17T04:06:11.321Z,61.37
2023-03-17T04:08:38.995Z,62.44
2023-03-17T04:11:06.629Z,62.09
2023-03-17T04:13:34.280Z,61.33
2023-03-17T04:16:02.371Z,60.96
2023-03-17T04:18:32.113Z,60.64
2023-03-17T04:21:00.313Z,59.75
2023-03-17T04:23:29.140Z,59.95
2023-03-17T04:25:56.817Z,59.35
2023-03-17T04:28:24.739Z,59.99
2023-03-17T04:30:52.444Z,60.63
2023-03-17T04:33:20.398Z,59.64
2023-03-17T04:35:49.537Z,61.73
2023-03-17T04:38:17.469Z,59.70
2023-03-17T04:40:45.412Z,60.97
2023-03-17T04:43:13.062Z,60.59
2023-03-17T04:45:41.144Z,59.63
2023-03-17T04:48:08.801Z,59.84
2023-03-17T04:50:36.453Z,61.07
2023-03-17T04:53:05.589Z,60.13
2023-03-17T04:55:33.523Z,60.42
2023-03-17T04:58:01.672Z,61.88
2023-03-17T05:00:29.780Z,60.59
2023-03-17T05:02:57.590Z,59.01
2023-03-17T05:05:25.382Z,59.86
2023-03-17T05:07:53.149Z,60.36
2023-03-17T05:10:22.236Z,59.07
2023-03-17T05:12:49.985Z,59.62
2023-03-17T05:15:17.920Z,58.60
2023-03-17T05:17:45.769Z,59.97
2023-03-17T05:20:14.364Z,58.46
2023-03-17T05:22:42.103Z,58.81
2023-03-17T05:25:10.507Z,61.58
2023-03-17T05:27:39.574Z,59.17
2023-03-17T05:30:08.400Z,61.37
2023-03-17T05:32:36.613Z,60.34
2023-03-17T05:35:06.525Z,60.25
2023-03-17T05:37:34.384Z,59.48
2023-03-17T05:40:03.123Z,59.70
2023-03-17T05:42:30.906Z,58.62
2023-03-17T05:45:00.324Z,59.26
2023-03-17T05:47:28.057Z,58.98
2023-03-17T05:49:56.124Z,58.60
2023-03-17T05:52:23.866Z,60.81
2023-03-17T05:54:52.628Z,59.26
2023-03-17T05:57:20.365Z,59.44
2023-03-17T05:59:48.467Z,60.15
2023-03-17T06:02:17.823Z,58.77
2023-03-17T06:04:45.743Z,58.73
2023-03-17T06:07:13.700Z,58.59
2023-03-17T06:09:41.750Z,58.38
2023-03-17T06:12:10.581Z,57.56
2023-03-17T06:14:38.266Z,58.99
2023-03-17T06:17:06.529Z,59.07
2023-03-17T06:19:35.879Z,59.61
2023-03-17T06:22:03.620Z,56.65
2023-03-17T06:24:31.361Z,58.95
2023-03-17T06:26:59.108Z,58.59
2023-03-17T06:29:27.480Z,56.90
2023-03-17T06:31:56.057Z,58.19
2023-03-17T06:34:25.331Z,57.66
2023-03-17T06:36:54.530Z,56.78
2023-03-17T06:39:22.335Z,58.16
2023-03-17T06:41:51.188Z,56.92
2023-03-17T06:44:18.976Z,56.59
2023-03-17T06:46:46.813Z,58.49
2023-03-17T06:49:14.641Z,55.63
2023-03-17T06:51:42.610Z,55.42
2023-03-17T06:54:12.336Z,56.67
2023-03-17T06:56:40.032Z,55.63
2023-03-17T06:59:07.767Z,57.67
2023-03-17T07:01:35.490Z,58.42
2023-03-17T07:04:17.438Z,58.41
2023-03-17T07:06:46.349Z,57.15
2023-03-17T07:09:17.128Z,57.77
2023-03-17T07:11:44.813Z,55.73
2023-03-17T07:14:12.513Z,55.13
2023-03-17T07:16:42.048Z,56.09
2023-03-17T07:19:09.884Z,56.31
2023-03-17T07:21:37.519Z,56.15
2023-03-17T07:24:05.476Z,54.99
2023-03-17T07:26:34.753Z,53.75
2023-03-17T07:29:02.490Z,56.16
2023-03-17T07:31:30.225Z,53.14
2023-03-17T07:33:58.578Z,54.36
2023-03-17T07:36:26.261Z,54.06
2023-03-17T07:38:53.970Z,56.14
2023-03-17T07:41:22.011Z,54.75
2023-03-17T07:43:52.007Z,54.21
2023-03-17T07:46:20.094Z,53.63
2023-03-17T07:48:48.300Z,52.20
2023-03-17T07:51:17.277Z,52.13
2023-03-17T07:53:46.030Z,51.22
2023-03-17T07:56:14.334Z,52.57
2023-03-17T07:58:42.030Z,51.29
2023-03-17T08:01:11.345Z,51.86
2023-03-17T08:03:41.265Z,51.78
2023-03-17T08:06:09.536Z,52.69
2023-03-17T08:08:37.187Z,51.55
2023-03-17T08:11:05.992Z,51.51
2023-03-17T08:13:34.002Z,51.04
2023-03-17T08:16:02.032Z,49.07
2023-03-17T08:18:31.350Z,49.94
2023-03-17T08:20:59.277Z,51.58
2023-03-17T08:23:27.545Z,50.23
2023-03-17T08:26:14.257Z,49.19
2023-03-17T08:28:42.037Z,49.54
2023-03-17T08:31:13.027Z,51.06
2023-03-17T08:36:26.369Z,49.30
2023-03-17T08:38:54.342Z,49.20
2023-03-17T08:41:24.442Z,48.54
2023-03-17T08:43:52.949Z,49.36
2023-03-17T08:46:22.544Z,49.21
2023-03-17T08:48:54.086Z,48.65
2023-03-17T08:51:24.470Z,48.67
2023-03-17T08:53:52.634Z,48.50
2023-03-17T08:56:20.905Z,49.19
2023-03-17T08:58:49.314Z,48.19
2023-03-17T09:01:24.610Z,47.91
2023-03-17T09:03:54.962Z,47.88
2023-03-17T09:06:23.495Z,47.47
2023-03-17T09:08:55.395Z,48.00
2023-03-17T09:11:25.986Z,47.42
2023-03-17T09:13:54.409Z,47.57
2023-03-17T09:16:23.361Z,46.44
2023-03-17T09:19:01.492Z,46.50
2023-03-17T09:21:29.207Z,46.54
2023-03-17T09:23:57.018Z,47.56
2023-03-17T09:29:47.282Z,47.47
2023-03-17T09:32:15.580Z,44.88
2023-03-17T09:34:46.268Z,46.48
2023-03-17T09:37:14.807Z,45.73
2023-03-17T09:39:42.515Z,45.52
2023-03-17T09:42:20.477Z,45.36
2023-03-17T09:44:59.142Z,45.55
2023-03-17T09:47:41.570Z,45.78
2023-03-17T09:50:15.021Z,44.88
2023-03-17T09:52:43.223Z,44.57
2023-03-17T09:57:59.212Z,45.16
2023-03-17T10:00:29.403Z,43.64
2023-03-17T10:02:57.889Z,43.32
2023-03-17T10:05:30.088Z,42.38
2023-03-17T10:08:06.372Z,44.20
2023-03-17T10:10:43.867Z,43.34
2023-03-17T10:13:19.370Z,44.87
2023-03-17T10:15:51.587Z,44.28
2023-03-17T10:18:19.768Z,43.56
2023-03-17T10:20:52.058Z,43.63
2023-03-17T10:23:22.229Z,43.62
2023-03-17T10:25:49.960Z,42.07
2023-03-17T10:28:26.195Z,44.37
2023-03-17T10:31:17.577Z,41.57
2023-03-17T10:33:49.713Z,43.02
2023-03-17T10:36:19.311Z,42.78
2023-03-17T10:38:54.169Z,42.79
2023-03-17T10:41:22.413Z,42.54
2023-03-17T10:43:51.874Z,42.35
2023-03-17T10:46:32.600Z,42.51
2023-03-17T10:49:05.627Z,41.73
2023-03-17T10:51:37.190Z,41.55
2023-03-17T10:54:18.759Z,42.09
2023-03-17T10:56:48.150Z,41.11
2023-03-17T10:59:21.590Z,41.37
2023-03-17T11:01:54.020Z,41.91
2023-03-17T11:04:28.483Z,41.54
2023-03-17T11:06:59.156Z,41.60
2023-03-17T11:09:29.544Z,41.74
2023-03-17T11:12:05.595Z,41.91
2023-03-17T11:14:34.267Z,42.35
2023-03-17T11:17:03.833Z,42.13
2023-03-17T11:19:41.116Z,41.28
2023-03-17T11:22:13.575Z,41.74
2023-03-17T11:24:47.761Z,41.81
2023-03-17T11:27:24.802Z,41.04
2023-03-17T11:32:30.295Z,40.36
2023-03-17T11:35:16.709Z,40.46
2023-03-17T11:38:00.903Z,39.77
2023-03-17T11:40:33.300Z,40.72
2023-03-17T11:43:16.188Z,41.01
2023-03-17T11:45:47.124Z,39.98
2023-03-17T11:48:25.162Z,39.51
2023-03-17T11:50:57.925Z,39.72
2023-03-17T11:53:41.642Z,40.45
2023-03-17T11:56:14.455Z,40.04
2023-03-17T11:58:44.107Z,40.50
2023-03-17T12:01:16.272Z,39.96
2023-03-17T12:03:47.197Z,39.10
2023-03-17T12:06:18.003Z,40.21
2023-03-17T12:09:07.842Z,39.66
2023-03-17T12:11:38.368Z,39.93
2023-03-17T12:14:08.721Z,39.80
2023-03-17T12:16:40.098Z,39.99
2023-03-17T12:19:12.589Z,39.14
2023-03-17T12:21:43.482Z,39.68
2023-03-17T12:24:17.273Z,39.25
2023-03-17T12:26:50.753Z,40.29
2023-03-17T12:29:25.437Z,39.96
2023-03-17T12:31:57.332Z,38.63
2023-03-17T12:34:28.423Z,39.28
2023-03-17T12:36:56.592Z,39.22
2023-03-17T12:39:29.105Z,39.39
2023-03-17T12:42:15.816Z,39.41
2023-03-17T12:45:00.841Z,39.42
2023-03-17T12:50:49.200Z,40.08
2023-03-17T12:53:26.618Z,39.04
2023-03-17T12:55:58.552Z,39.82
2023-03-17T12:58:36.528Z,39.77
2023-03-17T13:01:17.412Z,39.85
2023-03-17T13:03:59.815Z,40.46
2023-03-17T13:06:30.890Z,40.79
2023-03-17T13:09:31.821Z,38.77
2023-03-17T13:11:59.967Z,38.75
2023-03-17T13:14:29.375Z,39.11
2023-03-17T13:17:05.932Z,40.86
2023-03-17T13:19:35.111Z,40.90
2023-03-17T13:22:25.198Z,39.97
2023-03-17T13:24:54.760Z,39.14
2023-03-17T13:27:42.460Z,38.10
2023-03-17T13:30:47.049Z,38.62
2023-03-17T13:33:24.400Z,38.90
2023-03-17T13:36:05.903Z,39.39
2023-03-17T13:39:14.995Z,39.09
2023-03-17T13:42:18.801Z,37.91
2023-03-17T13:45:00.672Z,39.11
2023-03-17T13:47:35.108Z,38.51
2023-03-17T13:50:09.413Z,38.74
2023-03-17T13:52:42.507Z,39.12
2023-03-17T13:55:32.050Z,37.80
2023-03-17T13:58:27.486Z,38.48
2023-03-17T14:01:02.663Z,39.07
2023-03-17T14:03:35.284Z,38.55
2023-03-17T14:06:08.139Z,38.27
2023-03-17T14:08:36.986Z,38.95
2023-03-17T14:11:08.986Z,38.90
2023-03-17T14:13:44.742Z,38.75
2023-03-17T14:16:17.323Z,37.81
2023-03-17T14:18:49.696Z,37.45
2023-03-17T14:21:24.089Z,38.09
2023-03-17T14:23:55.775Z,38.45
2023-03-17T14:26:24.810Z,38.36
2023-03-17T14:28:54.449Z,37.84
2023-03-17T14:31:24.067Z,38.90
2023-03-17T14:34:02.042Z,38.22
2023-03-17T14:36:34.235Z,39.42
2023-03-17T14:39:23.291Z,38.57
2023-03-17T14:42:02.784Z,38.32
2023-03-17T14:44:38.866Z,39.99
2023-03-17T14:47:12.829Z,39.27
2023-03-17T14:49:40.779Z,38.94
2023-03-17T14:54:44.020Z,39.20
2023-03-17T14:57:16.179Z,39.72
2023-03-17T14:59:57.183Z,38.31
2023-03-17T15:02:30.066Z,38.88
2023-03-17T15:05:00.408Z,39.89
2023-03-17T15:10:24.700Z,39.59
2023-03-17T15:13:01.325Z,39.36
2023-03-17T15:15:33.182Z,39.80
2023-03-17T15:18:04.721Z,40.42
2023-03-17T15:20:35.427Z,38.15
2023-03-17T15:23:06.273Z,37.36
2023-03-17T15:25:36.558Z,35.26
2023-03-17T15:28:11.676Z,35.78
2023-03-17T15:30:47.650Z,37.21
2023-03-17T15:33:21.693Z,37.17
2023-03-17T15:35:49.956Z,38.09
2023-03-17T15:38:17.767Z,38.76
2023-03-17T15:40:45.742Z,39.26
2023-03-17T15:43:15.797Z,39.35
2023-03-17T15:45:45.498Z,41.09
2023-03-17T15:48:17.404Z,39.15
2023-03-17T15:50:46.576Z,40.80
2023-03-17T15:53:15.074Z,40.48
2023-03-17T15:55:42.756Z,41.61
2023-03-17T15:58:11.098Z,41.11
2023-03-17T16:00:38.836Z,41.95
2023-03-17T16:03:14.748Z,41.15
2023-03-17T16:05:43.296Z,41.56
2023-03-17T16:08:14.193Z,41.52
2023-03-17T16:10:42.312Z,40.87
2023-03-17T16:13:10.030Z,42.05
2023-03-17T16:15:39.639Z,41.02
2023-03-17T16:18:13.544Z,41.91
2023-03-17T16:20:43.045Z,42.50
2023-03-17T16:23:15.851Z,42.66
2023-03-17T16:28:30.076Z,43.60
2023-03-17T16:31:00.321Z,43.16
2023-03-17T16:33:32.340Z,42.65
2023-03-17T16:36:01.282Z,43.11
2023-03-17T16:38:31.369Z,46.24
2023-03-17T16:41:01.416Z,44.77
2023-03-17T16:43:31.538Z,45.13
2023-03-17T16:46:00.843Z,47.01
2023-03-17T16:48:31.069Z,45.86
2023-03-17T16:50:59.142Z,46.25
2023-03-17T16:53:27.049Z,46.54
2023-03-17T16:55:55.500Z,48.07
2023-03-17T16:58:24.973Z,47.58
2023-03-17T17:00:54.223Z,47.80
2023-03-17T17:03:21.939Z,47.77
2023-03-17T17:05:51.217Z,48.00
2023-03-17T17:08:18.902Z,48.08
2023-03-17T17:10:46.594Z,46.96
2023-03-17T17:13:14.728Z,47.74
2023-03-17T17:15:43.478Z,47.20
2023-03-17T17:18:14.713Z,49.54
2023-03-17T17:20:42.955Z,45.88
2023-03-17T17:23:16.604Z,47.69
2023-03-17T17:25:44.411Z,48.07
2023-03-17T17:28:13.543Z,47.82
2023-03-17T17:30:45.061Z,47.42
2023-03-17T17:33:13.333Z,49.17
2023-03-17T17:35:41.721Z,47.59
2023-03-17T17:38:17.702Z,49.79
2023-03-17T17:40:45.386Z,49.55
2023-03-17T17:43:13.299Z,49.09
2023-03-17T17:45:41.308Z,48.62
2023-03-17T17:48:11.030Z,49.51
2023-03-17T17:50:38.709Z,50.08
2023-03-17T17:53:08.746Z,49.73
2023-03-17T17:55:38.195Z,48.82
2023-03-17T17:58:06.089Z,49.56
2023-03-17T18:00:34.060Z,51.52
2023-03-17T18:03:02.080Z,49.85
2023-03-17T18:05:30.047Z,51.15
2023-03-17T18:07:58.193Z,48.84
2023-03-17T18:10:26.153Z,50.92
2023-03-17T18:12:55.607Z,49.95
2023-03-17T18:15:23.603Z,50.85
2023-03-17T18:17:51.784Z,48.56
2023-03-17T18:20:21.666Z,49.01
2023-03-17T18:22:50.311Z,50.28
2023-03-17T18:25:19.393Z,51.21
2023-03-17T18:27:48.287Z,50.72
2023-03-17T18:30:23.414Z,50.24
2023-03-17T18:32:52.131Z,49.69
2023-03-17T18:35:22.983Z,49.32
2023-03-17T18:37:51.883Z,49.59
2023-03-17T18:40:20.072Z,51.20
2023-03-17T18:42:48.146Z,50.31
2023-03-17T18:45:17.283Z,51.24
2023-03-17T18:47:44.991Z,49.60
2023-03-17T18:50:14.529Z,51.44
2023-03-17T18:52:43.789Z,50.95
2023-03-17T18:55:12.414Z,51.26
2023-03-17T18:57:42.586Z,52.21
2023-03-17T19:00:13.947Z,52.26
2023-03-17T19:02:43.280Z,52.24
2023-03-17T19:05:11.697Z,52.32
2023-03-17T19:07:40.665Z,51.41
2023-03-17T19:10:09.771Z,51.00
2023-03-17T19:12:37.937Z,50.81
2023-03-17T19:15:07.334Z,51.03
2023-03-17T19:17:36.505Z,50.91
2023-03-17T19:20:07.059Z,50.87
2023-03-17T19:22:35.311Z,49.76
2023-03-17T19:25:04.346Z,50.13
2023-03-17T19:27:32.325Z,50.64
2023-03-17T19:30:00.067Z,50.57
2023-03-17T19:32:28.034Z,49.55
2023-03-17T19:34:56.205Z,49.65
2023-03-17T19:37:26.093Z,49.97
2023-03-17T19:39:53.948Z,50.57
2023-03-17T19:42:22.143Z,49.94
2023-03-17T19:44:49.828Z,52.21
2023-03-17T19:47:17.828Z,51.36
2023-03-17T19:49:45.936Z,53.93
2023-03-17T19:52:13.887Z,52.62
2023-03-17T19:54:45.824Z,52.34
2023-03-17T19:57:13.669Z,52.83
2023-03-17T19:59:41.682Z,52.52
2023-03-17T20:04:46.209Z,53.38
2023-03-17T20:07:13.968Z,54.16
2023-03-17T20:09:44.764Z,54.94
2023-03-17T20:12:12.557Z,55.69
2023-03-17T20:14:40.302Z,56.04
2023-03-17T20:17:08.213Z,55.81
2023-03-17T20:19:39.167Z,56.08
2023-03-17T20:22:07.162Z,55.81
2023-03-17T20:24:35.559Z,57.64
2023-03-17T20:27:05.234Z,56.96
2023-03-17T20:29:33.128Z,56.43
2023-03-17T20:32:02.107Z,56.92
2023-03-17T20:34:31.770Z,55.98
2023-03-17T20:36:59.692Z,56.02
2023-03-17T20:39:27.380Z,56.38
2023-03-17T20:41:55.352Z,57.01
2023-03-17T20:44:24.803Z,56.33
2023-03-17T20:46:53.104Z,56.44
2023-03-17T20:49:21.002Z,56.43
2023-03-17T20:51:49.494Z,56.65
2023-03-17T20:54:17.934Z,56.87
2023-03-17T20:56:46.136Z,57.28
2023-03-17T20:59:13.800Z,57.22
2023-03-17T21:01:43.831Z,57.00
2023-03-17T21:04:15.660Z,58.27
2023-03-17T21:06:43.556Z,58.56
2023-03-17T21:09:11.670Z,56.92
2023-03-17T21:11:39.478Z,56.98
2023-03-17T21:14:08.034Z,57.84
2023-03-17T21:16:37.314Z,58.44
2023-03-17T21:19:09.522Z,58.87
2023-03-17T21:21:37.641Z,58.67
2023-03-17T21:24:08.383Z,58.29
2023-03-17T21:26:36.260Z,58.42
2023-03-17T21:29:04.101Z,58.59
2023-03-17T21:31:31.805Z,57.49
2023-03-17T21:33:59.651Z,58.58
2023-03-17T21:36:28.748Z,57.67
2023-03-17T21:38:56.454Z,58.74
2023-03-17T21:41:30.958Z,58.37
2023-03-17T21:43:59.166Z,58.28
2023-03-17T21:46:27.039Z,58.27
2023-03-17T21:48:55.906Z,58.34
2023-03-17T21:51:24.408Z,59.61
2023-03-17T21:53:54.103Z,58.06
2023-03-17T21:56:22.324Z,59.16
2023-03-17T21:58:50.244Z,61.19
2023-03-17T22:01:31.553Z,62.32
2023-03-17T22:03:59.671Z,63.31
2023-03-17T22:06:29.433Z,64.12
2023-03-17T22:08:58.715Z,63.14
2023-03-17T22:11:26.684Z,63.31
2023-03-17T22:13:54.588Z,63.39
2023-03-17T22:16:22.343Z,68.75
2023-03-17T22:18:50.064Z,68.40
2023-03-17T22:21:18.023Z,68.69
2023-03-17T22:23:46.263Z,69.52
2023-03-17T22:26:17.976Z,70.05
2023-03-17T22:28:47.105Z,73.01
2023-03-17T22:31:16.565Z,71.96
2023-03-17T22:33:44.768Z,73.41
2023-03-17T22:36:13.133Z,72.85
2023-03-17T22:38:41.417Z,73.29
2023-03-17T22:41:10.967Z,73.42
2023-03-17T22:43:40.314Z,74.69
2023-03-17T22:46:08.601Z,75.46
2023-03-17T22:48:36.969Z,73.74
2023-03-17T22:51:07.270Z,74.59
2023-03-17T22:53:35.727Z,79.46
2023-03-17T22:56:04.139Z,78.49
2023-03-17T22:58:31.898Z,81.61
2023-03-17T23:01:01.257Z,81.06
2023-03-17T23:03:29.881Z,79.82
2023-03-17T23:05:59.890Z,81.32
2023-03-17T23:08:29.346Z,81.45
2023-03-17T23:10:57.610Z,82.70
2023-03-17T23:13:25.314Z,82.02
2023-03-17T23:15:53.184Z,83.87
2023-03-17T23:18:22.778Z,82.72
2023-03-17T23:20:51.263Z,81.23
2023-03-17T23:23:19.935Z,81.96
2023-03-17T23:25:47.774Z,83.42
2023-03-17T23:28:16.031Z,81.26
2023-03-17T23:30:43.878Z,83.54
2023-03-17T23:33:11.772Z,81.70
2023-03-17T23:35:41.044Z,82.95
2023-03-17T23:38:09.829Z,84.23
2023-03-17T23:40:37.523Z,87.60
2023-03-17T23:43:05.798Z,87.29
2023-03-17T23:45:34.318Z,87.74
2023-03-17T23:48:02.910Z,85.03
2023-03-17T23:50:32.005Z,86.48
2023-03-17T23:53:01.872Z,86.58
2023-03-17T23:55:29.762Z,86.77
2023-03-17T23:57:57.619Z,86.91
